Terminal Aerodrome Forecast
Issued by NWS

Home | Current Version | Previous Version | Text Only | Print | Product List | Glossary On
Versions: 1 2 3 4 5 6 7 8 9 10 11 12 13 14 15 16 17
000
FTUS43 KGRB 291900 AAA
TAFMTW
TAF AMD
KMTW 291920Z 2919/3018 21018G27KT P6SM SCT007 OVC015
      TEMPO 2919/2923 2SM -RADZ BR OVC007
     FM300000 28022G32KT P6SM BKN018 BKN030
     FM300300 28019G27KT P6SM SCT050
     FM300900 28010KT P6SM SKC=

USA.gov is the U.S. government's official web portal to all federal, state and local government web resources and services.